Time;durP1;ratioP1;P1;durP2;ratioP2;P2;SDS_P1;SDS_P2;PMS_P1;PMS_P2;Temp;Humidity;BMP_temperature;BMP_pressure;BME280_temperature;BME280_humidity;BME280_pressure;Samples;Min_cycle;Max_cycle;Signal;HPM_P1;HPM_P2
2022/12/05 00:00:09;;;;;;;32.67;18.93;;;3.60;99.90;;;;;;4978315;28;20254;-82
2022/12/05 00:02:36;;;;;;;28.80;17.70;;;3.60;99.90;;;;;;4981439;28;20245;-82
2022/12/05 00:05:02;;;;;;;30.87;18.40;;;3.50;99.90;;;;;;4984381;28;20707;-81
2022/12/05 00:07:30;;;;;;;31.23;19.13;;;3.50;99.90;;;;;;4978823;28;20236;-83
2022/12/05 00:09:57;;;;;;;30.47;18.20;;;3.50;99.90;;;;;;4982260;28;20273;-83
2022/12/05 00:12:24;;;;;;;28.33;17.43;;;3.50;99.90;;;;;;4975811;28;20885;-84
2022/12/05 00:14:51;;;;;;;29.90;17.70;;;3.50;99.90;;;;;;4985079;28;20260;-82
2022/12/05 00:17:18;;;;;;;30.30;18.27;;;3.50;99.90;;;;;;4987514;28;20223;-82
2022/12/05 00:19:45;;;;;;;27.27;17.07;;;3.60;99.90;;;;;;4989365;28;20758;-82
2022/12/05 00:22:12;;;;;;;29.47;18.43;;;3.60;99.90;;;;;;4977703;28;20254;-83
2022/12/05 00:24:40;;;;;;;29.73;17.70;;;3.60;99.90;;;;;;4970099;28;20604;-83
2022/12/05 00:27:07;;;;;;;27.97;17.23;;;3.60;99.90;;;;;;4968890;28;20230;-84
2022/12/05 00:29:34;;;;;;;29.80;18.10;;;3.60;99.90;;;;;;4962095;28;20230;-81
2022/12/05 00:32:00;;;;;;;28.87;17.60;;;3.60;99.90;;;;;;4958827;28;20251;-82
2022/12/05 00:34:27;;;;;;;27.37;16.57;;;3.60;99.90;;;;;;4964372;28;20346;-82
2022/12/05 00:36:54;;;;;;;28.50;17.03;;;3.60;99.90;;;;;;4977630;28;20233;-84
2022/12/05 00:39:21;;;;;;;27.23;16.10;;;3.60;99.90;;;;;;4988469;28;20725;-84
2022/12/05 00:41:49;;;;;;;28.13;16.13;;;3.60;99.90;;;;;;4984349;28;20255;-83
2022/12/05 00:44:15;;;;;;;25.20;15.53;;;3.60;99.90;;;;;;4967006;28;20928;-84
2022/12/05 00:46:43;;;;;;;27.63;16.93;;;3.60;99.90;;;;;;4960753;28;20238;-83
2022/12/05 00:49:11;;;;;;;25.07;16.40;;;3.60;99.90;;;;;;4965117;28;20263;-83
2022/12/05 00:51:40;;;;;;;27.17;16.77;;;3.60;99.90;;;;;;4960337;28;20329;-82
2022/12/05 00:54:10;;;;;;;24.97;16.00;;;3.60;99.90;;;;;;4970593;28;20222;-82
2022/12/05 00:56:37;;;;;;;27.07;16.97;;;3.60;99.90;;;;;;4975741;28;20227;-81
2022/12/05 00:59:06;;;;;;;26.60;16.10;;;3.60;99.90;;;;;;4976737;28;20229;-82
2022/12/05 01:01:37;;;;;;;24.33;15.63;;;3.60;99.90;;;;;;4985035;28;20261;-81
2022/12/05 01:04:05;;;;;;;24.53;16.57;;;3.60;99.90;;;;;;4983504;28;20690;-82
2022/12/05 01:06:33;;;;;;;26.23;16.40;;;3.60;99.90;;;;;;4977332;28;20283;-82
2022/12/05 01:09:00;;;;;;;23.80;14.93;;;3.60;99.90;;;;;;4987509;28;20226;-81
2022/12/05 01:11:27;;;;;;;22.33;14.77;;;3.60;99.90;;;;;;4984292;28;20290;-83
2022/12/05 01:13:55;;;;;;;24.47;15.33;;;3.70;99.90;;;;;;4968912;28;20228;-82
2022/12/05 01:16:25;;;;;;;24.00;15.30;;;3.70;99.90;;;;;;4989155;28;20242;-81
2022/12/05 01:18:52;;;;;;;23.90;15.20;;;3.70;99.90;;;;;;4994818;28;20590;-82
2022/12/05 01:21:20;;;;;;;22.50;14.07;;;3.70;99.90;;;;;;4993777;28;20703;-82
2022/12/05 01:23:47;;;;;;;25.27;15.53;;;3.70;99.90;;;;;;4981915;28;20314;-82
2022/12/05 01:26:16;;;;;;;23.17;14.67;;;3.70;99.90;;;;;;4987596;28;20268;-83
2022/12/05 01:28:43;;;;;;;22.30;14.80;;;3.70;99.90;;;;;;4977278;28;20275;-82
2022/12/05 01:31:15;;;;;;;19.60;14.03;;;3.70;99.90;;;;;;4983305;28;20316;-82
2022/12/05 01:33:44;;;;;;;20.60;14.23;;;3.70;99.90;;;;;;4982688;28;20317;-82
2022/12/05 01:36:12;;;;;;;21.13;14.03;;;3.70;99.90;;;;;;4988034;28;20503;-83
2022/12/05 01:38:39;;;;;;;20.93;13.50;;;3.70;99.90;;;;;;4982194;28;20245;-82
2022/12/05 01:41:08;;;;;;;21.43;14.57;;;3.70;99.90;;;;;;4977304;28;20341;-83
2022/12/05 01:43:53;;;;;;;22.43;15.00;;;3.80;99.90;;;;;;4987179;28;20233;-82
2022/12/05 01:46:20;;;;;;;19.10;13.97;;;3.80;99.90;;;;;;4980480;28;20230;-82
2022/12/05 01:48:49;;;;;;;24.43;13.33;;;3.80;99.90;;;;;;4981549;28;20249;-83
2022/12/05 01:51:16;;;;;;;19.80;13.77;;;3.80;99.90;;;;;;4980375;28;20322;-82
2022/12/05 01:53:43;;;;;;;21.23;14.77;;;3.80;99.90;;;;;;4978693;28;20247;-82
2022/12/05 01:56:10;;;;;;;20.37;14.37;;;3.90;99.90;;;;;;4966707;28;20311;-82
2022/12/05 01:58:39;;;;;;;20.70;14.77;;;3.90;99.90;;;;;;4978778;28;20591;-82
2022/12/05 02:01:06;;;;;;;23.13;14.63;;;3.90;99.90;;;;;;4982236;28;20226;-85
2022/12/05 02:03:35;;;;;;;23.30;15.53;;;3.90;99.90;;;;;;4980283;28;20262;-82
2022/12/05 02:06:04;;;;;;;23.00;14.90;;;4.00;99.90;;;;;;4982919;28;20731;-82
2022/12/05 02:08:30;;;;;;;23.33;14.87;;;3.90;99.90;;;;;;4982294;28;20317;-83
2022/12/05 02:10:58;;;;;;;21.63;14.33;;;4.00;99.90;;;;;;4985249;28;20279;-84
2022/12/05 02:13:43;;;;;;;21.80;15.07;;;3.90;99.90;;;;;;4979337;28;20226;-83
2022/12/05 02:16:18;;;;;;;23.23;15.30;;;3.90;99.90;;;;;;4983741;28;20222;-83
2022/12/05 02:19:00;;;;;;;24.67;15.40;;;4.00;99.90;;;;;;4986894;28;20632;-82
2022/12/05 02:21:52;;;;;;;25.97;15.93;;;3.90;99.90;;;;;;4972677;28;20218;-82
2022/12/05 02:24:54;;;;;;;24.70;15.20;;;3.90;99.90;;;;;;4982497;28;20226;-82
2022/12/05 02:27:39;;;;;;;24.07;15.57;;;3.90;99.90;;;;;;4962685;28;20717;-82
2022/12/05 02:30:09;;;;;;;25.13;16.27;;;4.00;99.90;;;;;;4979300;28;20769;-82
2022/12/05 02:32:51;;;;;;;22.20;14.93;;;4.00;99.90;;;;;;4987099;28;20265;-81
2022/12/05 02:35:30;;;;;;;24.20;16.90;;;4.00;99.90;;;;;;4972132;28;20254;-83
2022/12/05 02:38:08;;;;;;;25.47;16.57;;;4.00;99.90;;;;;;4982054;28;20282;-82
2022/12/05 02:40:43;;;;;;;22.67;15.30;;;4.00;99.90;;;;;;4990721;28;20244;-83
2022/12/05 02:43:16;;;;;;;26.07;16.77;;;4.00;99.90;;;;;;4988389;28;20236;-83
2022/12/05 02:45:45;;;;;;;26.63;16.83;;;4.00;99.90;;;;;;4985473;28;20237;-82
2022/12/05 02:48:14;;;;;;;27.07;17.33;;;4.00;99.90;;;;;;4977337;28;20231;-82
2022/12/05 02:50:43;;;;;;;27.77;17.13;;;4.00;99.90;;;;;;4995251;28;20714;-81
2022/12/05 02:53:13;;;;;;;27.90;18.10;;;4.00;99.90;;;;;;4995385;28;20245;-83
2022/12/05 02:55:41;;;;;;;28.77;17.53;;;3.90;99.90;;;;;;4979926;28;20237;-82
2022/12/05 02:58:12;;;;;;;29.77;18.53;;;4.00;99.90;;;;;;4983371;28;20306;-82
2022/12/05 03:00:42;;;;;;;28.53;19.00;;;3.90;99.90;;;;;;4977430;28;20282;-82
2022/12/05 03:03:15;;;;;;;30.20;19.07;;;3.90;99.90;;;;;;4979897;28;20215;-83
2022/12/05 03:05:47;;;;;;;29.37;18.37;;;3.90;99.90;;;;;;4977775;28;20261;-83
2022/12/05 03:08:19;;;;;;;30.60;18.77;;;4.00;99.90;;;;;;4981678;28;20225;-82
2022/12/05 03:10:49;;;;;;;29.87;18.67;;;3.90;99.90;;;;;;4979335;28;20733;-83
2022/12/05 03:13:20;;;;;;;29.57;19.13;;;4.00;99.90;;;;;;4998755;28;20776;-82
2022/12/05 03:15:50;;;;;;;28.80;19.03;;;4.00;99.90;;;;;;4988197;28;20258;-82
2022/12/05 03:18:23;;;;;;;31.87;19.30;;;4.00;99.90;;;;;;4984917;28;20219;-82
2022/12/05 03:20:57;;;;;;;28.90;18.17;;;4.00;99.90;;;;;;4982470;28;20234;-82
2022/12/05 03:23:28;;;;;;;31.97;18.90;;;3.90;99.90;;;;;;4975323;28;20318;-83
2022/12/05 03:26:00;;;;;;;29.70;19.77;;;4.00;99.90;;;;;;4977013;28;20305;-82
2022/12/05 03:28:36;;;;;;;32.53;19.10;;;4.00;99.90;;;;;;4983762;28;20225;-82
2022/12/05 03:31:09;;;;;;;33.33;19.50;;;3.90;99.90;;;;;;4983295;28;20907;-82
2022/12/05 03:33:43;;;;;;;32.23;19.37;;;3.90;99.90;;;;;;4978723;28;20303;-82
2022/12/05 03:36:15;;;;;;;32.33;19.50;;;4.00;99.90;;;;;;4983803;28;20601;-82
2022/12/05 03:38:49;;;;;;;30.00;18.87;;;4.00;99.90;;;;;;4981258;28;20868;-82
2022/12/05 03:41:22;;;;;;;33.07;19.70;;;4.00;99.90;;;;;;4986166;28;20987;-82
2022/12/05 03:43:54;;;;;;;33.53;19.73;;;4.00;99.90;;;;;;4976247;28;20230;-83
2022/12/05 03:46:27;;;;;;;32.13;20.30;;;4.00;99.90;;;;;;4981049;28;20288;-82
2022/12/05 03:49:00;;;;;;;34.53;19.60;;;4.00;99.90;;;;;;4985887;28;20218;-82
2022/12/05 03:51:34;;;;;;;30.40;20.07;;;4.10;99.90;;;;;;4985797;28;20324;-82
2022/12/05 03:54:05;;;;;;;36.73;20.37;;;4.00;99.90;;;;;;4975482;28;20227;-82
2022/12/05 03:56:36;;;;;;;36.67;20.97;;;4.10;99.90;;;;;;4971231;28;20961;-83
2022/12/05 03:59:10;;;;;;;34.33;20.47;;;4.00;99.90;;;;;;4985285;28;20285;-82
2022/12/05 04:01:40;;;;;;;33.27;19.97;;;4.10;99.90;;;;;;4980483;28;20556;-82
2022/12/05 04:04:12;;;;;;;36.57;21.30;;;4.10;99.90;;;;;;4985626;28;20233;-82
2022/12/05 04:06:40;;;;;;;36.20;21.33;;;4.10;99.90;;;;;;4980593;28;20611;-78
2022/12/05 04:09:11;;;;;;;34.40;21.20;;;4.10;99.90;;;;;;4974337;28;20223;-78
2022/12/05 04:11:43;;;;;;;34.57;19.17;;;4.00;99.90;;;;;;4974472;28;20309;-78
2022/12/05 04:14:14;;;;;;;35.47;20.53;;;4.00;99.90;;;;;;4982373;28;20286;-78
2022/12/05 04:17:03;;;;;;;35.17;19.53;;;4.00;99.90;;;;;;4980187;28;20246;-78
2022/12/05 04:22:18;;;;;;;33.07;19.50;;;4.00;99.90;;;;;;4982275;28;20313;-79
2022/12/05 04:27:52;;;;;;;34.63;20.40;;;4.00;99.90;;;;;;4928829;29;20376;-78
2022/12/05 04:30:21;;;;;;;34.77;20.10;;;4.00;99.90;;;;;;4937403;29;20228;-78
2022/12/05 04:32:53;;;;;;;39.40;21.70;;;4.00;99.90;;;;;;4963327;28;20234;-79
2022/12/05 04:35:25;;;;;;;38.33;21.73;;;4.00;99.90;;;;;;4977954;28;20222;-79
2022/12/05 04:37:57;;;;;;;37.57;21.50;;;4.00;99.90;;;;;;4978586;28;20639;-78
2022/12/05 04:40:29;;;;;;;39.63;22.00;;;4.00;99.90;;;;;;4977222;28;20237;-79
2022/12/05 04:42:59;;;;;;;37.50;20.97;;;4.00;99.90;;;;;;4982606;28;20246;-78
2022/12/05 04:45:26;;;;;;;83.17;23.13;;;4.00;99.90;;;;;;4974593;28;20236;-78
2022/12/05 04:48:01;;;;;;;39.87;21.63;;;3.90;99.90;;;;;;4980975;28;20289;-78
2022/12/05 04:50:32;;;;;;;35.43;19.43;;;3.90;99.90;;;;;;4974996;28;20286;-78
2022/12/05 04:53:01;;;;;;;36.00;19.03;;;4.00;99.90;;;;;;4972158;28;20223;-79
2022/12/05 04:55:33;;;;;;;34.63;18.87;;;4.00;99.90;;;;;;4964762;28;20242;-78
2022/12/05 04:58:06;;;;;;;37.93;19.63;;;3.90;99.90;;;;;;4966922;28;20252;-77
2022/12/05 05:00:39;;;;;;;34.97;18.73;;;4.00;99.90;;;;;;4983911;28;20225;-77
2022/12/05 05:03:13;;;;;;;35.33;19.00;;;3.90;99.90;;;;;;4969509;28;20250;-77
2022/12/05 05:05:45;;;;;;;39.67;19.47;;;3.90;99.90;;;;;;4972353;28;20215;-78
2022/12/05 05:08:17;;;;;;;37.10;19.73;;;3.90;99.90;;;;;;4972625;28;20225;-77
2022/12/05 05:10:51;;;;;;;37.00;19.30;;;3.90;99.90;;;;;;4979305;28;20324;-77
2022/12/05 05:13:18;;;;;;;36.20;20.03;;;3.90;99.90;;;;;;4981215;28;20214;-78
2022/12/05 05:15:45;;;;;;;36.73;19.77;;;3.90;99.90;;;;;;4979158;28;20829;-77
2022/12/05 05:18:12;;;;;;;39.90;19.87;;;3.90;99.90;;;;;;4977289;28;20241;-77
2022/12/05 05:20:41;;;;;;;34.23;19.70;;;3.90;99.90;;;;;;4980773;28;20703;-78
2022/12/05 05:23:08;;;;;;;39.07;19.80;;;3.90;99.90;;;;;;4981560;28;20222;-78
2022/12/05 05:25:35;;;;;;;39.47;20.37;;;3.90;99.90;;;;;;4974407;28;20231;-79
2022/12/05 05:28:02;;;;;;;35.77;19.83;;;3.90;99.90;;;;;;4976869;28;20222;-79
2022/12/05 05:30:29;;;;;;;38.97;21.37;;;3.90;99.90;;;;;;4973530;28;20226;-78
2022/12/05 05:32:55;;;;;;;43.57;21.70;;;3.90;99.90;;;;;;4976346;28;20710;-79
2022/12/05 05:35:22;;;;;;;47.80;22.07;;;3.90;99.90;;;;;;4975599;28;20460;-78
2022/12/05 05:37:50;;;;;;;52.00;23.97;;;3.90;99.90;;;;;;4982306;28;20699;-79
2022/12/05 05:40:18;;;;;;;50.10;23.93;;;3.80;99.90;;;;;;4983396;28;20231;-79
2022/12/05 05:42:45;;;;;;;48.30;22.70;;;3.80;99.90;;;;;;4974810;28;20254;-78
2022/12/05 05:45:13;;;;;;;50.80;23.43;;;3.80;99.90;;;;;;4981366;28;20238;-78
2022/12/05 05:47:40;;;;;;;54.57;24.93;;;3.80;99.90;;;;;;4983376;28;20313;-79
2022/12/05 05:50:08;;;;;;;56.60;24.63;;;3.70;99.90;;;;;;4981761;28;20229;-80
2022/12/05 05:52:36;;;;;;;63.00;26.70;;;3.70;99.90;;;;;;4981149;28;20309;-79
2022/12/05 05:55:07;;;;;;;57.60;26.17;;;3.70;99.90;;;;;;5000892;28;20328;-79
2022/12/05 05:57:34;;;;;;;59.27;27.13;;;3.70;99.90;;;;;;4981669;28;20303;-78
2022/12/05 06:00:01;;;;;;;59.60;26.17;;;3.70;99.90;;;;;;4981874;28;20230;-79
2022/12/05 06:02:33;;;;;;;66.37;27.13;;;3.70;99.90;;;;;;4981826;28;20669;-80
2022/12/05 06:05:00;;;;;;;66.70;27.67;;;3.70;99.90;;;;;;4984427;28;20230;-79
2022/12/05 06:07:27;;;;;;;70.60;28.80;;;3.60;99.90;;;;;;4988704;28;20231;-79
2022/12/05 06:09:54;;;;;;;68.20;27.50;;;3.60;99.90;;;;;;4987879;28;20225;-77
2022/12/05 06:12:23;;;;;;;82.63;28.33;;;3.60;99.90;;;;;;4984520;28;20218;-81
2022/12/05 06:14:50;;;;;;;65.23;28.93;;;3.60;99.90;;;;;;4985761;28;20276;-79
2022/12/05 06:17:17;;;;;;;76.30;27.50;;;3.50;99.90;;;;;;4986566;28;20283;-79
2022/12/05 06:19:44;;;;;;;68.67;27.83;;;3.60;99.90;;;;;;4986474;28;21180;-78
2022/12/05 06:22:11;;;;;;;74.67;29.37;;;3.60;99.90;;;;;;4980558;28;20292;-78
2022/12/05 06:24:38;;;;;;;80.23;29.50;;;3.60;99.90;;;;;;4982082;28;20713;-78
2022/12/05 06:27:05;;;;;;;75.03;29.70;;;3.50;99.90;;;;;;4980159;28;20285;-78
2022/12/05 06:29:34;;;;;;;74.13;28.17;;;3.50;99.90;;;;;;4979945;28;20959;-78
2022/12/05 06:32:01;;;;;;;76.43;27.03;;;3.50;99.90;;;;;;4982707;28;20229;-78
2022/12/05 06:34:28;;;;;;;67.27;28.63;;;3.50;99.90;;;;;;4984275;28;20305;-78
2022/12/05 06:36:55;;;;;;;73.60;29.10;;;3.40;99.90;;;;;;4982888;28;20292;-78
2022/12/05 06:39:22;;;;;;;68.87;28.00;;;3.40;99.90;;;;;;4985431;28;20288;-78
2022/12/05 06:41:49;;;;;;;59.93;26.87;;;3.40;99.90;;;;;;4978542;28;20638;-78
2022/12/05 06:44:16;;;;;;;63.37;25.80;;;3.40;99.90;;;;;;4985989;28;20781;-78
2022/12/05 06:46:47;;;;;;;64.67;26.67;;;3.40;99.90;;;;;;4993286;28;20348;-78
2022/12/05 06:49:13;;;;;;;61.70;27.33;;;3.40;99.90;;;;;;4977257;28;20259;-80
2022/12/05 06:51:40;;;;;;;56.67;25.77;;;3.40;99.90;;;;;;4986485;28;20715;-80
2022/12/05 06:54:07;;;;;;;60.57;26.20;;;3.40;99.90;;;;;;4980978;28;20222;-79
2022/12/05 06:56:33;;;;;;;55.23;24.40;;;3.40;99.90;;;;;;4986744;28;20230;-79
2022/12/05 06:59:00;;;;;;;61.20;26.90;;;3.40;99.90;;;;;;4983579;28;20226;-78
2022/12/05 07:01:39;;;;;;;57.70;25.10;;;3.30;99.90;;;;;;4978788;28;20225;-80
2022/12/05 07:04:11;;;;;;;54.43;24.17;;;3.30;99.90;;;;;;4978705;28;20253;-79
2022/12/05 07:06:38;;;;;;;48.00;22.60;;;3.30;99.90;;;;;;4983493;28;20555;-79
2022/12/05 07:09:05;;;;;;;48.87;23.07;;;3.30;99.90;;;;;;4976677;28;20234;-79
2022/12/05 07:11:32;;;;;;;49.03;22.77;;;3.30;99.90;;;;;;4988263;28;20226;-78
2022/12/05 07:13:59;;;;;;;44.80;22.60;;;3.30;99.90;;;;;;4980322;28;20218;-78
2022/12/05 07:16:25;;;;;;;45.30;21.30;;;3.20;99.90;;;;;;4986987;28;20218;-80
2022/12/05 07:18:52;;;;;;;47.40;22.20;;;3.20;99.90;;;;;;4980426;28;21668;-79
2022/12/05 07:21:21;;;;;;;43.10;21.33;;;3.20;99.90;;;;;;4985154;28;20310;-79
2022/12/05 07:23:49;;;;;;;42.60;21.13;;;3.10;99.90;;;;;;4987285;28;20252;-79
2022/12/05 07:26:19;;;;;;;44.10;22.07;;;3.20;99.90;;;;;;4975393;28;20233;-79
2022/12/05 07:28:47;;;;;;;44.37;22.17;;;3.20;99.90;;;;;;4982829;28;20237;-79
2022/12/05 07:31:15;;;;;;;47.77;22.57;;;3.10;99.90;;;;;;4984053;28;20745;-80
2022/12/05 07:33:42;;;;;;;48.30;22.10;;;3.10;99.90;;;;;;4986051;28;20241;-80
2022/12/05 07:36:11;;;;;;;46.50;21.77;;;3.10;99.90;;;;;;4982023;28;20226;-78
2022/12/05 07:38:39;;;;;;;43.03;21.53;;;3.10;99.90;;;;;;4973551;28;20245;-79
2022/12/05 07:41:08;;;;;;;44.40;21.40;;;3.10;99.90;;;;;;4979701;28;20225;-78
2022/12/05 07:43:34;;;;;;;43.97;22.23;;;3.10;99.90;;;;;;4977444;28;20321;-78
2022/12/05 07:46:02;;;;;;;68.00;23.13;;;3.10;99.90;;;;;;4983887;28;20218;-81
2022/12/05 07:48:29;;;;;;;49.87;22.10;;;3.10;99.90;;;;;;4986400;28;20236;-77
2022/12/05 07:50:59;;;;;;;54.70;22.10;;;3.10;99.90;;;;;;4984718;28;20261;-77
2022/12/05 07:53:26;;;;;;;48.90;21.77;;;3.00;99.90;;;;;;4977289;28;20817;-79
2022/12/05 07:55:54;;;;;;;51.13;24.03;;;3.00;99.90;;;;;;4991109;28;20269;-82
2022/12/05 07:58:20;;;;;;;95.60;26.00;;;3.00;99.90;;;;;;4994026;28;20713;-77
2022/12/05 08:00:47;;;;;;;75.07;25.83;;;3.00;99.90;;;;;;4989374;28;20260;-78
2022/12/05 08:03:14;;;;;;;57.67;23.10;;;3.00;99.90;;;;;;4990989;28;20271;-78
2022/12/05 08:05:41;;;;;;;50.60;23.73;;;3.00;99.90;;;;;;4993920;28;20221;-80
2022/12/05 08:08:07;;;;;;;55.90;23.73;;;3.00;99.90;;;;;;4977720;28;20229;-81
2022/12/05 08:10:34;;;;;;;50.73;22.57;;;2.90;99.90;;;;;;4983977;28;20226;-82
2022/12/05 08:13:03;;;;;;;51.67;23.30;;;2.90;99.90;;;;;;4981704;28;20218;-78
2022/12/05 08:15:29;;;;;;;62.03;24.07;;;2.90;99.90;;;;;;4980540;28;20229;-80
2022/12/05 08:17:56;;;;;;;50.97;24.17;;;2.90;99.90;;;;;;4986052;28;20225;-80
2022/12/05 08:20:24;;;;;;;59.00;24.37;;;2.90;99.90;;;;;;4981128;28;20826;-80
2022/12/05 08:22:52;;;;;;;55.73;22.93;;;3.00;99.90;;;;;;4990699;28;20236;-80
2022/12/05 08:25:19;;;;;;;58.10;24.50;;;2.90;99.90;;;;;;4987811;28;20233;-80
2022/12/05 08:27:46;;;;;;;53.33;24.20;;;2.90;99.90;;;;;;4981748;28;20691;-80
2022/12/05 08:30:14;;;;;;;56.10;24.53;;;2.90;99.90;;;;;;4982503;28;20228;-80
2022/12/05 08:32:43;;;;;;;92.17;25.90;;;2.90;99.90;;;;;;4983162;28;20261;-80
2022/12/05 08:35:10;;;;;;;65.73;26.10;;;2.90;99.90;;;;;;4983284;28;20232;-80
2022/12/05 08:37:37;;;;;;;55.27;24.33;;;2.90;99.90;;;;;;4980716;28;20234;-81
2022/12/05 08:40:07;;;;;;;62.37;23.87;;;2.90;99.90;;;;;;4980468;28;20229;-78
2022/12/05 08:42:34;;;;;;;49.43;22.20;;;3.00;99.90;;;;;;4977538;28;20222;-80
2022/12/05 08:45:00;;;;;;;58.47;23.90;;;3.00;99.90;;;;;;4978960;28;20230;-80
2022/12/05 08:47:28;;;;;;;52.20;24.87;;;3.00;99.90;;;;;;4990890;28;20237;-79
2022/12/05 08:49:55;;;;;;;53.43;23.13;;;3.00;99.90;;;;;;4977841;28;20222;-81
2022/12/05 08:52:22;;;;;;;54.30;21.40;;;3.00;99.90;;;;;;4977555;28;20244;-81
2022/12/05 08:54:48;;;;;;;54.47;23.53;;;3.00;99.90;;;;;;4979736;28;20237;-80
2022/12/05 08:57:15;;;;;;;68.70;23.70;;;3.00;99.90;;;;;;4984845;28;20260;-80
2022/12/05 08:59:42;;;;;;;49.60;21.80;;;3.00;99.90;;;;;;4986190;28;20262;-80
2022/12/05 09:02:09;;;;;;;64.87;22.77;;;3.00;99.90;;;;;;4984173;28;20218;-80
2022/12/05 09:04:37;;;;;;;65.23;23.77;;;3.00;99.90;;;;;;4985879;28;20266;-80
2022/12/05 09:07:05;;;;;;;54.03;24.00;;;3.00;99.90;;;;;;4985720;28;20248;-80
2022/12/05 09:09:32;;;;;;;57.17;23.57;;;2.90;99.90;;;;;;4979161;28;20257;-80
2022/12/05 09:11:59;;;;;;;81.00;23.47;;;2.90;99.90;;;;;;4982371;28;20886;-80
2022/12/05 09:14:31;;;;;;;53.97;22.70;;;2.90;99.90;;;;;;4981978;28;20227;-80
2022/12/05 09:16:59;;;;;;;46.43;20.90;;;2.90;99.90;;;;;;4984638;28;20311;-80
2022/12/05 09:19:27;;;;;;;55.47;22.53;;;2.90;99.90;;;;;;4980587;28;20229;-80
2022/12/05 09:21:57;;;;;;;41.93;20.53;;;2.90;99.90;;;;;;4981235;28;20223;-80
2022/12/05 09:24:23;;;;;;;58.23;21.70;;;2.90;99.90;;;;;;4975837;28;20260;-80
2022/12/05 09:26:50;;;;;;;58.83;21.67;;;2.90;99.90;;;;;;4986924;28;20958;-80
2022/12/05 09:29:18;;;;;;;53.63;21.63;;;2.90;99.90;;;;;;4982112;28;20222;-81
2022/12/05 09:31:46;;;;;;;69.57;22.60;;;3.00;99.90;;;;;;4979961;28;20494;-81
2022/12/05 09:34:13;;;;;;;63.73;22.47;;;3.00;99.90;;;;;;4984728;28;20300;-81
2022/12/05 09:36:41;;;;;;;46.83;21.10;;;3.00;99.90;;;;;;4984811;28;20239;-81
2022/12/05 09:39:10;;;;;;;54.03;20.83;;;3.00;99.90;;;;;;4989836;28;20262;-81
2022/12/05 09:42:07;;;;;;;45.27;20.33;;;3.00;99.90;;;;;;4985381;28;20276;-79
2022/12/05 09:45:03;;;;;;;43.47;20.63;;;3.00;99.90;;;;;;5005114;28;20816;-79
2022/12/05 09:47:38;;;;;;;47.43;21.77;;;3.00;99.90;;;;;;4984974;28;20225;-79
2022/12/05 09:50:13;;;;;;;141.93;26.03;;;3.00;99.90;;;;;;4981377;28;20233;-79
2022/12/05 09:52:51;;;;;;;49.43;21.33;;;3.00;99.90;;;;;;4986808;28;20217;-79
2022/12/05 09:55:20;;;;;;;51.13;21.20;;;3.00;99.90;;;;;;4990451;28;20569;-79
2022/12/05 09:57:51;;;;;;;96.47;22.77;;;3.00;99.90;;;;;;4986365;28;20226;-79
2022/12/05 10:00:20;;;;;;;45.87;20.23;;;3.00;99.90;;;;;;4979734;28;20222;-79
2022/12/05 10:02:55;;;;;;;46.57;19.73;;;3.00;99.90;;;;;;4978797;28;20233;-79
2022/12/05 10:05:27;;;;;;;51.87;19.37;;;3.00;99.90;;;;;;4967079;28;20210;-80
2022/12/05 10:08:02;;;;;;;51.27;21.27;;;3.00;99.90;;;;;;4976677;28;20215;-80
2022/12/05 10:10:39;;;;;;;43.17;19.40;;;3.00;99.90;;;;;;4960397;28;20223;-80
2022/12/05 10:13:23;;;;;;;46.87;20.17;;;3.00;99.90;;;;;;4956727;28;20323;-80
2022/12/05 10:15:53;;;;;;;42.13;19.97;;;3.00;99.90;;;;;;4962887;28;20230;-80
2022/12/05 10:18:33;;;;;;;38.80;20.10;;;3.00;99.90;;;;;;4981129;28;20233;-80
2022/12/05 10:21:05;;;;;;;40.07;19.37;;;3.10;99.90;;;;;;4979740;28;20868;-80
2022/12/05 10:23:38;;;;;;;44.90;19.97;;;3.10;99.90;;;;;;4978112;28;20228;-80
2022/12/05 10:26:10;;;;;;;44.83;19.67;;;3.00;99.90;;;;;;4980190;28;20234;-80
2022/12/05 10:28:41;;;;;;;39.23;18.43;;;3.00;99.90;;;;;;4982985;28;20227;-80
2022/12/05 10:31:13;;;;;;;40.87;19.53;;;3.00;99.90;;;;;;4976446;28;20231;-80
2022/12/05 10:33:45;;;;;;;38.63;19.13;;;3.00;99.90;;;;;;4984670;28;20306;-80
2022/12/05 10:36:13;;;;;;;41.17;19.60;;;3.00;99.90;;;;;;4980019;28;20724;-80
2022/12/05 10:38:41;;;;;;;41.23;19.23;;;2.90;99.90;;;;;;4972306;28;20222;-80
2022/12/05 10:41:12;;;;;;;41.17;19.57;;;3.00;99.90;;;;;;4968698;28;20227;-81
2022/12/05 10:43:41;;;;;;;39.23;19.30;;;3.00;99.90;;;;;;4971814;28;20219;-81
2022/12/05 10:46:09;;;;;;;43.13;19.80;;;3.00;99.90;;;;;;4979317;28;20227;-81
2022/12/05 10:48:39;;;;;;;38.17;18.83;;;3.00;99.90;;;;;;4985429;28;20239;-81
2022/12/05 10:51:06;;;;;;;37.60;18.33;;;3.10;99.90;;;;;;4984508;28;20373;-80
2022/12/05 10:53:40;;;;;;;40.47;19.37;;;3.00;99.90;;;;;;4961313;28;20234;-79
2022/12/05 10:56:42;;;;;;;34.80;17.90;;;3.00;99.90;;;;;;4982477;28;20642;-80
2022/12/05 10:59:10;;;;;;;35.73;18.07;;;3.00;99.90;;;;;;4976865;28;20213;-80
2022/12/05 11:01:42;;;;;;;34.47;19.03;;;3.10;99.90;;;;;;4982108;28;20230;-81
2022/12/05 11:04:23;;;;;;;37.87;19.03;;;3.10;99.90;;;;;;4973445;28;20241;-81
2022/12/05 11:06:52;;;;;;;37.60;18.30;;;3.10;99.90;;;;;;4979963;28;20240;-81
2022/12/05 11:09:23;;;;;;;34.70;18.80;;;3.00;99.90;;;;;;4970234;28;20252;-80
2022/12/05 11:12:18;;;;;;;31.60;17.73;;;3.10;99.90;;;;;;4986954;28;20235;-80
2022/12/05 11:15:00;;;;;;;31.40;17.87;;;3.10;99.90;;;;;;4994451;28;20237;-80
2022/12/05 11:17:30;;;;;;;33.50;17.43;;;3.00;99.90;;;;;;4992069;28;20230;-80
2022/12/05 11:19:57;;;;;;;33.43;17.13;;;3.00;99.90;;;;;;4995256;28;20557;-80
2022/12/05 11:22:32;;;;;;;31.73;17.07;;;3.00;99.90;;;;;;4977963;28;20720;-80
2022/12/05 11:24:58;;;;;;;28.87;15.73;;;2.90;99.90;;;;;;4977812;28;21015;-80
2022/12/05 11:27:30;;;;;;;31.53;16.77;;;2.90;99.90;;;;;;4980066;28;20233;-80
2022/12/05 11:30:00;;;;;;;32.07;16.43;;;2.90;99.90;;;;;;4985323;28;20777;-80
2022/12/05 11:32:29;;;;;;;31.10;16.53;;;3.00;99.90;;;;;;4983806;28;20313;-80
2022/12/05 11:35:08;;;;;;;35.27;16.80;;;3.00;99.90;;;;;;4980121;28;20227;-80
2022/12/05 11:37:45;;;;;;;27.77;15.07;;;3.00;99.90;;;;;;4969516;28;20261;-80
2022/12/05 11:40:15;;;;;;;27.30;15.83;;;3.00;99.90;;;;;;4969997;28;20359;-80
2022/12/05 11:43:11;;;;;;;28.37;15.27;;;3.00;99.90;;;;;;4976475;28;20667;-80
2022/12/05 11:45:56;;;;;;;27.43;15.50;;;3.00;99.90;;;;;;4972775;28;20237;-80
2022/12/05 11:48:35;;;;;;;28.60;15.07;;;3.00;99.90;;;;;;4981261;28;20229;-80
2022/12/05 11:51:15;;;;;;;28.13;15.77;;;3.00;99.90;;;;;;4978435;28;20787;-80
2022/12/05 11:54:09;;;;;;;31.60;17.60;;;3.10;99.90;;;;;;4986673;28;20222;-79
2022/12/05 11:56:41;;;;;;;27.00;15.40;;;3.10;99.90;;;;;;4981544;28;20249;-80
2022/12/05 11:59:34;;;;;;;34.13;16.43;;;3.20;99.90;;;;;;4978903;28;20222;-80
2022/12/05 12:02:13;;;;;;;28.00;15.43;;;3.20;99.90;;;;;;4977639;28;20222;-80
2022/12/05 12:04:52;;;;;;;26.70;15.33;;;3.30;99.90;;;;;;4980804;28;20240;-80
2022/12/05 12:07:30;;;;;;;24.40;15.17;;;3.40;99.90;;;;;;4977999;28;20221;-81
2022/12/05 12:10:08;;;;;;;28.13;14.80;;;3.40;99.90;;;;;;4989749;28;20690;-80
2022/12/05 12:12:45;;;;;;;24.70;14.37;;;3.50;99.90;;;;;;4978595;28;20221;-80
2022/12/05 12:15:48;;;;;;;24.67;14.37;;;3.50;99.90;;;;;;4980581;28;20234;-80
2022/12/05 12:18:30;;;;;;;24.67;14.83;;;3.50;99.90;;;;;;4974589;28;20234;-80
2022/12/05 12:21:08;;;;;;;22.83;13.13;;;3.50;99.90;;;;;;4981816;28;20230;-80
2022/12/05 12:23:49;;;;;;;19.57;12.53;;;3.60;99.90;;;;;;4979711;28;20586;-80
2022/12/05 12:26:21;;;;;;;23.50;13.17;;;3.50;99.90;;;;;;4976116;28;20226;-80
2022/12/05 12:29:03;;;;;;;21.87;12.70;;;3.50;99.90;;;;;;4994151;28;20226;-79
2022/12/05 12:31:42;;;;;;;21.87;12.97;;;3.40;99.90;;;;;;4974714;28;20222;-80
2022/12/05 12:34:29;;;;;;;21.60;12.83;;;3.40;99.90;;;;;;4980174;28;20225;-79
2022/12/05 12:37:02;;;;;;;22.93;13.57;;;3.40;99.90;;;;;;4981835;28;21090;-80
2022/12/05 12:39:41;;;;;;;22.83;13.40;;;3.30;99.90;;;;;;4975768;28;20245;-80
2022/12/05 12:42:25;;;;;;;21.90;12.90;;;3.20;99.90;;;;;;4979761;28;20747;-80
2022/12/05 12:45:28;;;;;;;21.47;13.97;;;3.20;99.90;;;;;;4979118;28;20314;-79
2022/12/05 12:48:14;;;;;;;23.13;12.47;;;3.10;99.90;;;;;;4945846;28;20585;-80
2022/12/05 12:50:51;;;;;;;23.50;13.33;;;3.00;99.90;;;;;;4983397;28;20233;-80
2022/12/05 12:53:40;;;;;;;22.07;13.17;;;3.00;99.90;;;;;;4969157;28;20218;-80
2022/12/05 12:56:20;;;;;;;31.90;14.10;;;3.00;99.90;;;;;;4978157;28;20264;-80
2022/12/05 12:58:51;;;;;;;22.90;13.97;;;3.00;99.90;;;;;;4979906;28;20307;-80
2022/12/05 13:01:31;;;;;;;34.80;13.07;;;3.00;99.90;;;;;;4979279;28;20226;-80